createdAt,value
2018-11-29T00:00:30.149Z,3.33
2018-11-29T00:02:58.829Z,3.37
2018-11-29T00:05:27.632Z,3.42
2018-11-29T00:07:56.283Z,3.90
2018-11-29T00:10:25.061Z,3.52
2018-11-29T00:12:53.703Z,3.33
2018-11-29T00:15:22.392Z,3.83
2018-11-29T00:17:51.090Z,3.55
2018-11-29T00:20:20.366Z,3.80
2018-11-29T00:22:50.720Z,3.58
2018-11-29T00:25:19.839Z,3.40
2018-11-29T00:27:48.693Z,3.42
2018-11-29T00:30:21.214Z,3.77
2018-11-29T00:32:50.368Z,4.12
2018-11-29T00:35:19.122Z,4.10
2018-11-29T00:37:47.874Z,4.53
2018-11-29T00:40:18.494Z,3.90
2018-11-29T00:42:47.198Z,3.08
2018-11-29T00:45:17.601Z,3.22
2018-11-29T00:47:47.069Z,3.60
2018-11-29T00:50:16.351Z,3.50
2018-11-29T00:52:45.845Z,4.45
2018-11-29T00:55:16.007Z,4.22
2018-11-29T00:57:44.718Z,3.42
2018-11-29T01:00:19.345Z,3.20
2018-11-29T01:02:48.084Z,3.17
2018-11-29T01:05:16.838Z,3.22
2018-11-29T01:07:45.523Z,2.67
2018-11-29T01:10:15.963Z,3.30
2018-11-29T01:12:45.087Z,4.42
2018-11-29T01:15:15.613Z,5.60
2018-11-29T01:17:44.900Z,4.15
2018-11-29T01:20:14.431Z,3.17
2018-11-29T01:22:43.200Z,3.37
2018-11-29T01:25:12.633Z,2.95
2018-11-29T01:27:41.730Z,5.72
2018-11-29T01:30:11.558Z,3.62
2018-11-29T01:32:40.353Z,3.72
2018-11-29T01:35:10.239Z,3.83
2018-11-29T01:37:39.045Z,4.42
2018-11-29T01:40:09.553Z,3.70
2018-11-29T01:42:38.202Z,5.60
2018-11-29T01:45:07.012Z,4.03
2018-11-29T01:47:35.642Z,4.20
2018-11-29T01:50:04.512Z,4.60
2018-11-29T01:52:33.174Z,4.03
2018-11-29T01:55:01.802Z,3.60
2018-11-29T01:57:30.644Z,3.75
2018-11-29T01:59:59.341Z,3.62
2018-11-29T02:02:28.049Z,4.08
2018-11-29T02:04:56.697Z,3.80
2018-11-29T02:07:25.446Z,3.55
2018-11-29T02:10:57.020Z,3.40
2018-11-29T02:13:25.644Z,3.55
2018-11-29T02:15:54.237Z,4.95
2018-11-29T02:18:22.893Z,3.00
2018-11-29T02:20:51.526Z,2.92
2018-11-29T02:23:20.191Z,3.65
2018-11-29T02:25:48.803Z,3.22
2018-11-29T02:28:17.428Z,3.85
2018-11-29T02:30:46.110Z,4.70
2018-11-29T02:33:14.860Z,3.47
2018-11-29T02:35:43.618Z,4.55
2018-11-29T02:38:12.270Z,4.12
2018-11-29T02:40:40.927Z,4.25
2018-11-29T02:43:09.552Z,5.15
2018-11-29T02:45:38.233Z,4.85
2018-11-29T02:48:07.378Z,4.42
2018-11-29T02:50:36.130Z,4.55
2018-11-29T02:53:04.835Z,6.08
2018-11-29T02:55:33.521Z,5.00
2018-11-29T02:58:02.489Z,6.65
2018-11-29T03:00:31.142Z,4.75
2018-11-29T03:02:59.784Z,5.20
2018-11-29T03:05:28.436Z,5.08
2018-11-29T03:07:57.115Z,6.30
2018-11-29T03:10:26.594Z,5.20
2018-11-29T03:12:55.353Z,5.70
2018-11-29T03:15:24.028Z,6.35
2018-11-29T03:21:13.420Z,3.72
2018-11-29T03:23:42.067Z,4.00
2018-11-29T03:26:10.850Z,3.40
2018-11-29T03:28:39.521Z,4.65
2018-11-29T03:31:08.182Z,3.72
2018-11-29T03:33:36.819Z,3.40
2018-11-29T03:36:05.749Z,3.47
2018-11-29T03:38:34.506Z,5.10
2018-11-29T03:41:03.306Z,3.10
2018-11-29T03:43:32.017Z,3.20
2018-11-29T03:46:00.629Z,2.80
2018-11-29T03:48:29.315Z,2.83
2018-11-29T03:50:57.967Z,4.37
2018-11-29T03:53:26.676Z,3.30
2018-11-29T03:55:55.311Z,3.12
2018-11-29T03:58:23.993Z,3.00
2018-11-29T04:00:52.669Z,3.15
2018-11-29T04:03:21.254Z,2.83
2018-11-29T04:05:49.949Z,2.90
2018-11-29T04:08:18.634Z,4.03
2018-11-29T04:10:47.278Z,4.05
2018-11-29T04:13:15.905Z,3.55
2018-11-29T04:15:44.620Z,3.40
2018-11-29T04:18:13.218Z,3.62
2018-11-29T04:20:41.877Z,3.17
2018-11-29T04:23:10.612Z,3.47
2018-11-29T04:25:39.234Z,4.65
2018-11-29T04:28:07.873Z,3.30
2018-11-29T04:30:36.673Z,3.40
2018-11-29T04:33:05.378Z,3.50
2018-11-29T04:35:33.998Z,3.40
2018-11-29T04:38:02.675Z,3.20
2018-11-29T04:40:31.361Z,4.83
2018-11-29T04:43:00.080Z,3.80
2018-11-29T04:46:47.361Z,3.62
2018-11-29T04:49:16.086Z,5.15
2018-11-29T04:51:44.828Z,4.10
2018-11-29T04:54:13.463Z,5.08
2018-11-29T04:56:42.102Z,8.10
2018-11-29T04:59:10.819Z,5.12
2018-11-29T05:01:39.631Z,5.15
2018-11-29T05:04:08.398Z,5.60
2018-11-29T05:06:37.061Z,5.95
2018-11-29T05:09:09.146Z,4.28
2018-11-29T05:11:38.492Z,4.08
2018-11-29T05:14:07.306Z,5.25
2018-11-29T05:16:36.080Z,5.60
2018-11-29T05:19:04.851Z,4.50
2018-11-29T05:21:33.542Z,5.42
2018-11-29T05:24:02.153Z,5.70
2018-11-29T05:26:30.776Z,4.97
2018-11-29T05:28:59.429Z,5.15
2018-11-29T05:31:28.118Z,6.42
2018-11-29T05:33:56.810Z,4.62
2018-11-29T05:36:25.754Z,4.58
2018-11-29T05:38:54.422Z,4.53
2018-11-29T05:41:23.112Z,6.00
2018-11-29T05:43:52.022Z,4.62
2018-11-29T05:46:21.058Z,5.03
2018-11-29T05:48:49.823Z,4.92
2018-11-29T05:51:18.455Z,4.70
2018-11-29T05:53:47.115Z,5.65
2018-11-29T05:56:15.865Z,5.55
2018-11-29T05:58:44.555Z,5.83
2018-11-29T06:01:20.298Z,5.50
2018-11-29T06:03:48.987Z,7.08
2018-11-29T06:06:17.630Z,5.45
2018-11-29T06:08:46.303Z,5.75
2018-11-29T06:11:14.939Z,4.75
2018-11-29T06:13:43.626Z,6.35
2018-11-29T06:16:12.305Z,5.33
2018-11-29T06:18:41.005Z,5.90
2018-11-29T06:21:09.663Z,6.12
2018-11-29T06:23:38.401Z,4.87
2018-11-29T06:26:07.287Z,6.40
2018-11-29T06:28:36.168Z,6.10
2018-11-29T06:31:04.943Z,8.68
2018-11-29T06:33:33.723Z,6.75
2018-11-29T06:36:02.453Z,7.05
2018-11-29T06:38:31.113Z,8.45
2018-11-29T06:40:59.762Z,11.33
2018-11-29T06:43:28.445Z,11.20
2018-11-29T06:45:57.124Z,8.10
2018-11-29T06:48:25.771Z,7.47
2018-11-29T06:50:54.421Z,8.00
2018-11-29T06:53:28.107Z,7.67
2018-11-29T06:55:56.857Z,7.62
2018-11-29T06:58:25.483Z,6.67
2018-11-29T07:00:54.503Z,9.58
2018-11-29T07:03:23.195Z,10.72
2018-11-29T07:05:51.856Z,7.25
2018-11-29T07:08:20.518Z,11.05
2018-11-29T07:10:49.272Z,8.83
2018-11-29T07:13:17.854Z,8.70
2018-11-29T07:15:46.518Z,8.13
2018-11-29T07:18:15.185Z,10.08
2018-11-29T07:20:53.855Z,7.20
2018-11-29T07:23:22.582Z,6.22
2018-11-29T07:25:51.257Z,7.37
2018-11-29T07:28:19.939Z,6.67
2018-11-29T07:30:48.638Z,6.45
2018-11-29T07:33:17.353Z,6.97
2018-11-29T07:35:46.001Z,8.58
2018-11-29T07:38:14.651Z,8.00
2018-11-29T07:40:43.367Z,7.15
2018-11-29T07:43:12.061Z,9.68
2018-11-29T07:45:40.708Z,10.28
2018-11-29T07:48:09.423Z,12.47
2018-11-29T07:50:38.036Z,10.65
2018-11-29T07:53:06.916Z,8.98
2018-11-29T07:55:35.636Z,7.72
2018-11-29T07:58:04.343Z,9.53
2018-11-29T08:00:33.043Z,7.00
2018-11-29T08:03:01.751Z,12.68
2018-11-29T08:05:30.591Z,7.30
2018-11-29T08:07:59.360Z,8.05
2018-11-29T08:10:28.063Z,8.15
2018-11-29T08:12:56.824Z,7.70
2018-11-29T08:15:25.577Z,10.15
2018-11-29T08:17:54.340Z,9.60
2018-11-29T08:20:23.192Z,7.47
2018-11-29T08:22:52.438Z,8.60
2018-11-29T08:25:21.237Z,8.98
2018-11-29T08:27:49.891Z,10.30
2018-11-29T08:30:18.697Z,11.20
2018-11-29T08:32:47.362Z,11.30
2018-11-29T08:35:16.436Z,7.90
2018-11-29T08:37:46.881Z,7.70
2018-11-29T08:40:18.696Z,9.00
2018-11-29T08:42:47.501Z,8.70
2018-11-29T08:45:16.263Z,10.38
2018-11-29T08:47:44.956Z,8.10
2018-11-29T08:50:14.313Z,9.13
2018-11-29T08:52:44.094Z,9.70
2018-11-29T08:55:14.910Z,9.13
2018-11-29T08:57:43.625Z,8.00
2018-11-29T09:00:14.305Z,7.85
2018-11-29T09:02:44.370Z,10.93
2018-11-29T09:05:13.708Z,8.50
2018-11-29T09:07:42.900Z,7.40
2018-11-29T09:10:15.754Z,8.60
2018-11-29T09:12:44.777Z,7.65
2018-11-29T09:15:14.525Z,8.45
2018-11-29T09:17:43.523Z,9.90
2018-11-29T09:20:15.986Z,11.10
2018-11-29T09:22:44.699Z,12.07
2018-11-29T09:25:15.602Z,8.07
2018-11-29T09:27:44.307Z,8.05
2018-11-29T09:30:16.858Z,9.55
2018-11-29T09:32:47.100Z,8.63
2018-11-29T09:35:15.805Z,9.85
2018-11-29T09:37:44.428Z,11.73
2018-11-29T09:40:14.340Z,11.15
2018-11-29T09:42:43.167Z,10.23
2018-11-29T09:45:14.095Z,12.98
2018-11-29T09:47:43.029Z,12.55
2018-11-29T09:50:12.781Z,15.13
2018-11-29T09:52:41.775Z,12.25
2018-11-29T09:55:12.651Z,12.18
2018-11-29T09:57:41.604Z,8.60
2018-11-29T10:00:17.267Z,11.93
2018-11-29T10:02:48.762Z,11.40
2018-11-29T10:05:17.476Z,14.55
2018-11-29T10:07:46.146Z,13.22
2018-11-29T10:10:14.837Z,10.88
2018-11-29T10:12:43.555Z,9.05
2018-11-29T10:15:13.206Z,12.63
2018-11-29T10:17:41.915Z,11.40
2018-11-29T10:20:13.839Z,16.73
2018-11-29T10:22:43.234Z,16.35
2018-11-29T10:25:14.062Z,18.52
2018-11-29T10:27:48.293Z,20.57
2018-11-29T10:30:19.558Z,15.53
2018-11-29T10:32:48.529Z,13.35
2018-11-29T10:35:17.218Z,14.20
2018-11-29T10:37:45.933Z,13.60
2018-11-29T10:40:14.675Z,17.80
2018-11-29T10:42:43.481Z,14.78
2018-11-29T10:45:14.480Z,12.07
2018-11-29T10:47:44.102Z,10.28
2018-11-29T10:50:13.900Z,14.70
2018-11-29T10:52:42.705Z,14.40
2018-11-29T10:55:15.743Z,12.73
2018-11-29T10:57:44.576Z,13.70
2018-11-29T11:00:27.699Z,17.42
2018-11-29T11:03:07.774Z,18.00
2018-11-29T11:05:37.228Z,12.18
2018-11-29T11:08:08.564Z,15.30
2018-11-29T11:10:36.183Z,12.43
2018-11-29T11:13:05.160Z,11.03
2018-11-29T11:15:33.990Z,10.88
2018-11-29T11:18:02.829Z,10.40
2018-11-29T11:20:31.570Z,11.12
2018-11-29T11:23:00.361Z,13.80
2018-11-29T11:25:29.192Z,11.35
2018-11-29T11:27:57.997Z,9.85
2018-11-29T11:30:26.799Z,6.97
2018-11-29T11:32:55.513Z,11.57
2018-11-29T11:35:24.265Z,9.68
2018-11-29T11:37:53.306Z,9.98
2018-11-29T11:40:22.086Z,10.23
2018-11-29T11:42:50.812Z,9.48
2018-11-29T11:45:20.444Z,9.28
2018-11-29T11:47:49.408Z,8.50
2018-11-29T11:50:23.245Z,4.85
2018-11-29T11:52:52.707Z,10.28
2018-11-29T11:55:21.446Z,8.18
2018-11-29T11:57:50.223Z,10.93
2018-11-29T12:00:21.719Z,11.30
2018-11-29T12:02:53.105Z,10.43
2018-11-29T12:05:22.456Z,13.80
2018-11-29T12:07:51.321Z,11.12
2018-11-29T12:10:20.102Z,13.32
2018-11-29T12:12:48.909Z,10.90
2018-11-29T12:15:18.104Z,13.18
2018-11-29T12:17:47.437Z,10.63
2018-11-29T12:20:22.849Z,12.70
2018-11-29T12:22:51.541Z,10.80
2018-11-29T12:25:22.160Z,11.70
2018-11-29T12:27:51.574Z,12.10
2018-11-29T12:30:25.293Z,9.83
2018-11-29T12:32:56.655Z,9.25
2018-11-29T12:35:25.464Z,9.50
2018-11-29T12:37:54.200Z,12.33
2018-11-29T12:40:23.337Z,7.97
2018-11-29T12:42:52.148Z,11.15
2018-11-29T12:45:20.905Z,8.95
2018-11-29T12:47:49.643Z,11.55
2018-11-29T12:50:19.354Z,8.13
2018-11-29T12:52:48.032Z,9.75
2018-11-29T12:55:17.760Z,9.78
2018-11-29T12:57:46.535Z,10.23
2018-11-29T13:00:18.433Z,10.13
2018-11-29T13:02:49.341Z,11.00
2018-11-29T13:05:18.076Z,11.90
2018-11-29T13:07:46.752Z,12.75
2018-11-29T13:10:16.734Z,12.40
2018-11-29T13:12:45.480Z,10.65
2018-11-29T13:15:19.559Z,13.35
2018-11-29T13:17:48.362Z,16.95
2018-11-29T13:20:17.826Z,14.13
2018-11-29T13:22:46.681Z,16.97
2018-11-29T13:25:16.540Z,13.43
2018-11-29T13:27:45.254Z,19.12
2018-11-29T13:30:15.185Z,12.90
2018-11-29T13:32:44.032Z,15.08
2018-11-29T13:35:19.124Z,11.95
2018-11-29T13:37:52.388Z,11.22
2018-11-29T13:40:21.229Z,10.95
2018-11-29T13:42:51.475Z,13.48
2018-11-29T13:45:20.295Z,11.75
2018-11-29T13:47:49.998Z,11.48
2018-11-29T13:50:19.701Z,13.88
2018-11-29T13:52:48.535Z,11.33
2018-11-29T13:55:18.282Z,12.18
2018-11-29T13:57:48.755Z,10.65
2018-11-29T14:00:21.581Z,10.90
2018-11-29T14:02:51.714Z,11.38
2018-11-29T14:05:20.592Z,9.80
2018-11-29T14:07:49.488Z,12.40
2018-11-29T14:10:19.336Z,12.73
2018-11-29T14:12:49.075Z,12.15
2018-11-29T14:15:20.155Z,13.25
2018-11-29T14:17:49.300Z,12.93
2018-11-29T14:20:18.334Z,12.88
2018-11-29T14:22:47.226Z,13.48
2018-11-29T14:25:17.237Z,13.25
2018-11-29T14:27:48.154Z,12.93
2018-11-29T14:30:18.172Z,12.60
2018-11-29T14:32:47.113Z,10.43
2018-11-29T14:35:16.217Z,14.65
2018-11-29T14:37:45.138Z,13.60
2018-11-29T14:40:16.356Z,13.83
2018-11-29T14:42:45.260Z,15.28
2018-11-29T14:45:15.077Z,18.40
2018-11-29T14:47:44.101Z,15.43
2018-11-29T14:50:45.208Z,17.37
2018-11-29T14:53:14.134Z,17.23
2018-11-29T14:55:43.031Z,21.95
2018-11-29T14:58:13.162Z,21.10
2018-11-29T15:00:42.277Z,17.52
2018-11-29T15:03:15.768Z,15.83
2018-11-29T15:05:45.192Z,15.55
2018-11-29T15:08:13.987Z,20.50
2018-11-29T15:10:42.742Z,17.30
2018-11-29T15:13:12.370Z,22.10
2018-11-29T15:15:41.883Z,25.45
2018-11-29T15:18:11.434Z,24.67
2018-11-29T15:20:44.750Z,24.70
2018-11-29T15:23:14.766Z,25.92
2018-11-29T15:25:43.632Z,29.60
2018-11-29T15:28:12.445Z,24.32
2018-11-29T15:30:41.275Z,25.95
2018-11-29T15:33:10.061Z,30.80
2018-11-29T15:35:38.895Z,35.33
2018-11-29T15:38:08.010Z,35.38
2018-11-29T15:40:36.998Z,27.80
2018-11-29T15:43:05.916Z,23.65
2018-11-29T15:45:34.803Z,23.15
2018-11-29T15:48:03.577Z,20.65
2018-11-29T15:50:32.531Z,23.65
2018-11-29T15:53:01.301Z,22.62
2018-11-29T15:55:30.138Z,18.20
2018-11-29T15:57:59.759Z,25.15
2018-11-29T16:00:29.720Z,22.37
2018-11-29T16:03:02.935Z,25.57
2018-11-29T16:05:31.737Z,25.52
2018-11-29T16:08:00.585Z,24.90
2018-11-29T16:10:29.329Z,25.05
2018-11-29T16:12:58.582Z,22.82
2018-11-29T16:15:27.877Z,28.73
2018-11-29T16:17:56.586Z,21.73
2018-11-29T16:20:29.586Z,21.68
2018-11-29T16:22:58.357Z,17.65
2018-11-29T16:25:27.247Z,26.52
2018-11-29T16:27:56.440Z,21.73
2018-11-29T16:30:28.171Z,15.13
2018-11-29T16:32:58.360Z,17.67
2018-11-29T16:35:27.212Z,19.95
2018-11-29T16:37:56.070Z,17.32
2018-11-29T16:40:24.984Z,16.70
2018-11-29T16:42:53.739Z,21.07
2018-11-29T16:45:22.736Z,14.25
2018-11-29T16:47:51.544Z,23.60
2018-11-29T16:50:20.506Z,22.87
2018-11-29T16:52:49.345Z,28.07
2018-11-29T16:55:18.191Z,32.55
2018-11-29T16:57:50.990Z,24.40
2018-11-29T17:00:21.441Z,26.93
2018-11-29T17:02:50.267Z,25.45
2018-11-29T17:05:19.135Z,30.25
2018-11-29T17:07:47.922Z,17.17
2018-11-29T17:10:18.914Z,24.75
2018-11-29T17:12:59.914Z,20.57
2018-11-29T17:15:28.759Z,26.65
2018-11-29T17:17:57.659Z,26.55
2018-11-29T17:20:26.595Z,24.92
2018-11-29T17:22:55.383Z,26.65
2018-11-29T17:25:24.261Z,32.38
2018-11-29T17:27:53.115Z,38.10
2018-11-29T17:30:23.861Z,33.92
2018-11-29T17:32:58.475Z,30.92
2018-11-29T17:35:27.363Z,31.97
2018-11-29T17:37:58.583Z,27.80
2018-11-29T17:40:27.495Z,25.20
2018-11-29T17:42:57.067Z,27.90
2018-11-29T17:45:27.102Z,29.95
2018-11-29T17:47:57.218Z,34.23
2018-11-29T17:50:27.498Z,32.50
2018-11-29T17:52:56.240Z,33.50
2018-11-29T17:55:25.189Z,25.15
2018-11-29T17:57:54.068Z,26.93
2018-11-29T18:00:25.052Z,34.45
2018-11-29T18:02:54.053Z,25.43
2018-11-29T18:05:22.991Z,19.82
2018-11-29T18:07:51.921Z,24.65
2018-11-29T18:10:25.680Z,11.25
2018-11-29T18:12:58.978Z,12.68
2018-11-29T18:15:29.311Z,27.42
2018-11-29T18:17:58.131Z,11.95
2018-11-29T18:20:26.856Z,8.93
2018-11-29T18:22:55.686Z,10.03
2018-11-29T18:25:24.512Z,12.23
2018-11-29T18:27:53.804Z,13.25
2018-11-29T18:30:23.464Z,11.28
2018-11-29T18:32:52.180Z,16.37
2018-11-29T18:35:20.953Z,16.23
2018-11-29T18:37:50.172Z,15.72
2018-11-29T18:40:19.637Z,15.95
2018-11-29T18:42:55.752Z,20.23
2018-11-29T18:45:24.537Z,21.57
2018-11-29T18:47:54.000Z,19.48
2018-11-29T18:50:24.568Z,19.62
2018-11-29T18:52:53.662Z,17.17
2018-11-29T18:55:25.271Z,23.22
2018-11-29T18:57:54.845Z,23.30
2018-11-29T19:00:26.823Z,20.55
2018-11-29T19:02:57.120Z,28.45
2018-11-29T19:05:25.468Z,15.25
2018-11-29T19:07:54.180Z,17.70
2018-11-29T19:10:23.978Z,18.42
2018-11-29T19:12:55.263Z,15.08
2018-11-29T19:15:23.980Z,19.73
2018-11-29T19:17:52.678Z,14.60
2018-11-29T19:20:21.448Z,17.42
2018-11-29T19:22:50.249Z,12.15
2018-11-29T19:25:19.952Z,14.63
2018-11-29T19:27:48.702Z,16.20
2018-11-29T19:30:19.140Z,13.05
2018-11-29T19:32:51.282Z,13.43
2018-11-29T19:35:20.193Z,13.10
2018-11-29T19:37:49.470Z,12.68
2018-11-29T19:40:18.341Z,13.18
2018-11-29T19:42:47.138Z,13.85
2018-11-29T19:45:16.597Z,11.85
2018-11-29T19:47:45.446Z,12.88
2018-11-29T19:50:16.340Z,11.50
2018-11-29T19:52:48.253Z,11.73
2018-11-29T19:55:19.741Z,9.50
2018-11-29T19:57:48.569Z,8.80
2018-11-29T20:00:19.487Z,10.93
2018-11-29T20:02:48.985Z,7.72
2018-11-29T20:05:17.754Z,9.13
2018-11-29T20:07:46.613Z,11.97
2018-11-29T20:10:16.581Z,9.50
2018-11-29T20:12:46.274Z,10.13
2018-11-29T20:15:19.240Z,8.43
2018-11-29T20:17:48.354Z,7.15
2018-11-29T20:20:17.254Z,12.60
2018-11-29T20:22:46.126Z,7.45
2018-11-29T20:25:17.070Z,9.78
2018-11-29T20:27:45.992Z,9.35
2018-11-29T20:30:18.399Z,6.78
2018-11-29T20:32:48.017Z,9.45
2018-11-29T20:35:17.323Z,9.78
2018-11-29T20:37:46.117Z,10.25
2018-11-29T20:40:24.627Z,8.40
2018-11-29T20:42:55.457Z,9.83
2018-11-29T20:45:34.925Z,10.38
2018-11-29T20:48:15.180Z,8.88
2018-11-29T20:50:43.945Z,15.28
2018-11-29T20:53:14.542Z,10.15
2018-11-29T20:55:43.255Z,9.98
2018-11-29T20:58:11.943Z,10.70
2018-11-29T21:00:40.778Z,10.82
2018-11-29T21:03:09.753Z,13.25
2018-11-29T21:05:40.287Z,12.13
2018-11-29T21:08:10.171Z,14.60
2018-11-29T21:10:39.166Z,16.60
2018-11-29T21:13:08.707Z,16.70
2018-11-29T21:15:40.196Z,11.73
2018-11-29T21:18:10.214Z,12.75
2018-11-29T21:20:39.814Z,13.50
2018-11-29T21:23:10.778Z,10.78
2018-11-29T21:25:39.590Z,12.80
2018-11-29T21:28:08.430Z,11.75
2018-11-29T21:30:37.645Z,13.35
2018-11-29T21:33:07.093Z,14.73
2018-11-29T21:35:35.945Z,12.25
2018-11-29T21:38:13.134Z,13.72
2018-11-29T21:40:43.591Z,14.53
2018-11-29T21:43:12.356Z,14.23
2018-11-29T21:45:41.225Z,17.00
2018-11-29T21:48:10.002Z,16.50
2018-11-29T21:50:38.888Z,15.13
2018-11-29T21:53:07.884Z,15.20
2018-11-29T21:55:36.628Z,14.20
2018-11-29T21:58:05.671Z,12.73
2018-11-29T22:00:34.452Z,18.85
2018-11-29T22:03:03.363Z,15.23
2018-11-29T22:05:32.263Z,9.58
2018-11-29T22:08:00.977Z,8.03
2018-11-29T22:10:29.747Z,10.32
2018-11-29T22:12:58.534Z,10.70
2018-11-29T22:15:27.290Z,9.13
2018-11-29T22:18:16.996Z,6.47
2018-11-29T22:20:45.804Z,8.10
2018-11-29T22:23:14.575Z,6.35
2018-11-29T22:25:43.816Z,9.10
2018-11-29T22:28:12.539Z,6.22
2018-11-29T22:30:41.506Z,9.78
2018-11-29T22:33:10.289Z,8.25
2018-11-29T22:35:39.176Z,7.40
2018-11-29T22:38:08.462Z,9.35
2018-11-29T22:40:37.306Z,9.73
2018-11-29T22:43:06.208Z,13.15
2018-11-29T22:45:34.944Z,11.95
2018-11-29T22:48:03.715Z,15.45
2018-11-29T22:50:32.421Z,10.98
2018-11-29T22:53:01.205Z,13.18
2018-11-29T22:55:30.086Z,13.98
2018-11-29T22:57:58.917Z,13.70
2018-11-29T23:00:32.237Z,12.50
2018-11-29T23:03:01.362Z,12.35
2018-11-29T23:05:30.128Z,9.45
2018-11-29T23:07:58.928Z,11.33
2018-11-29T23:10:27.898Z,12.15
2018-11-29T23:12:56.486Z,11.08
2018-11-29T23:15:25.256Z,8.95
2018-11-29T23:17:54.183Z,9.98
2018-11-29T23:20:22.963Z,10.38
2018-11-29T23:22:51.815Z,10.82
2018-11-29T23:25:20.526Z,13.32
2018-11-29T23:27:49.365Z,9.55
2018-11-29T23:30:18.425Z,10.38
2018-11-29T23:32:47.150Z,10.00
2018-11-29T23:35:16.324Z,10.35
2018-11-29T23:37:45.133Z,12.07
2018-11-29T23:40:17.667Z,9.28
2018-11-29T23:42:46.900Z,11.03
2018-11-29T23:45:15.817Z,10.08
2018-11-29T23:47:44.595Z,9.75
2018-11-29T23:50:18.169Z,8.78
2018-11-29T23:52:47.302Z,8.90
2018-11-29T23:55:19.243Z,9.13
2018-11-29T23:57:48.094Z,7.17
